Walla Walla, Washington
Current Conditions -  °F | °C
As of 4:53 PM on Tuesday 27 Jan 2015 (Local Time) from KALW Reporting Station
Clear Clear  
Wind Chill: 35°   Ceiling: Unl
Heat Index: 40°   Visibility: 10mi
Dew Point: 37°   Wind: 7mph
Humidity: 89%   Direction: 280°W
Pressure: 30.07"   Gusts: NA
Location:  46.07°N, 118.34°W
Report Text: KALW 280053Z 28006KT 10SM CLR 04/03 A3007 RMK AO2 SLP193 T00440028
Loading
Personal Weather Stations






























Interactive Weather Map New forecast layout! Learn more

10-Day Weather Forecast

Advertisements
Track Severe Weather on mobile